EDLP/PAD METAR and TAF weather

Enter ICAO airport designator
Station Type Date Time Source
EDLP METAR 2021/09/28 04:50 UTC NOAA

EDLP 280450Z 19005KT CAVOK 11/09 Q1023


Station Type Date Time Source
EDLP Decoded METAR 2021/09/28 04:50 UTC NOAA

Paderborn / Lippstadt, Germany (EDLP) 51-37N 008-37E
Sep 28, 2021 - 12:50 AM EDT / 2021.09.28 0450 UTC
Wind: from the S (190 degrees) at 6 MPH (5 KT):0
Visibility: greater than 7 mile(s):0
Temperature: 51 F (11 C)
Dew Point: 48 F (9 C)
Relative Humidity: 87%
Pressure (altimeter): 30.21 in. Hg (1023 hPa)
ob: EDLP 280450Z 19005KT CAVOK 11/09 Q1023
cycle: 5

Station Type Date Time Source
EDLP TAF 2021/09/27 18:37 UTC NOAA

TAF EDLP 271700Z 2718/2818 20007KT 9999 SCT030
BECMG 2719/2722 26006KT
TEMPO 2719/2722 25020G30KT 3000 SHRA BKN014 SCT020CB
BECMG 2802/2805 20005KT
BECMG 2809/2812 26005KT
BECMG 2814/2816 15004KT

Example: see airport list